Terminal Aerodrome Forecast
Issued by NWS

Home | Current Version | Previous Version | Text Only | Print | Product List | Glossary On
Versions: 1 2 3 4 5 6 7 8 9 10 11 12 13 14 15
000
FTUS43 KMQT 270522
TAFSAW
TAF
KSAW 270522Z 2706/2806 36010KT P6SM BKN050
     FM270800 35008KT P6SM BKN025
     FM271000 36007KT P6SM OVC010
     FM271600 36010G20KT P6SM BKN015
     FM272000 36012G18KT P6SM SCT025
     FM280000 36005KT P6SM SCT120=

USA.gov is the U.S. government's official web portal to all federal, state and local government web resources and services.